sensor_id;sensor_type;location;lat;lon;timestamp;P1;durP1;ratioP1;P2;durP2;ratioP2
14474;SDS011;7323;50.848;4.334;2023-04-06T00:00:52;14.17;;;9.77;;
14474;SDS011;7323;50.848;4.334;2023-04-06T00:03:39;15.07;;;10.57;;
14474;SDS011;7323;50.848;4.334;2023-04-06T00:06:08;16.17;;;11.03;;
14474;SDS011;7323;50.848;4.334;2023-04-06T00:08:38;16.40;;;10.77;;
14474;SDS011;7323;50.848;4.334;2023-04-06T00:11:05;15.37;;;11.30;;
14474;SDS011;7323;50.848;4.334;2023-04-06T00:19:47;16.20;;;11.53;;
14474;SDS011;7323;50.848;4.334;2023-04-06T00:22:15;15.43;;;10.73;;
14474;SDS011;7323;50.848;4.334;2023-04-06T00:24:45;16.73;;;11.87;;
14474;SDS011;7323;50.848;4.334;2023-04-06T00:29:46;16.17;;;11.10;;
14474;SDS011;7323;50.848;4.334;2023-04-06T00:32:12;17.57;;;11.80;;
14474;SDS011;7323;50.848;4.334;2023-04-06T00:34:43;16.13;;;10.83;;
14474;SDS011;7323;50.848;4.334;2023-04-06T00:37:31;14.93;;;12.00;;
14474;SDS011;7323;50.848;4.334;2023-04-06T00:40:19;17.30;;;11.63;;
14474;SDS011;7323;50.848;4.334;2023-04-06T00:42:50;16.20;;;11.30;;
14474;SDS011;7323;50.848;4.334;2023-04-06T00:45:17;17.63;;;12.40;;
14474;SDS011;7323;50.848;4.334;2023-04-06T00:47:44;19.73;;;12.20;;
14474;SDS011;7323;50.848;4.334;2023-04-06T00:50:23;16.60;;;12.03;;
14474;SDS011;7323;50.848;4.334;2023-04-06T00:52:49;18.93;;;11.43;;
14474;SDS011;7323;50.848;4.334;2023-04-06T00:55:16;15.70;;;12.03;;
14474;SDS011;7323;50.848;4.334;2023-04-06T00:57:58;17.27;;;11.93;;
14474;SDS011;7323;50.848;4.334;2023-04-06T01:00:40;16.43;;;12.30;;
14474;SDS011;7323;50.848;4.334;2023-04-06T01:03:38;16.93;;;11.50;;
14474;SDS011;7323;50.848;4.334;2023-04-06T01:06:30;17.27;;;11.23;;
14474;SDS011;7323;50.848;4.334;2023-04-06T01:09:03;18.97;;;11.33;;
14474;SDS011;7323;50.848;4.334;2023-04-06T01:11:29;15.53;;;11.67;;
14474;SDS011;7323;50.848;4.334;2023-04-06T01:13:55;13.53;;;10.80;;
14474;SDS011;7323;50.848;4.334;2023-04-06T01:16:27;15.27;;;11.27;;
14474;SDS011;7323;50.848;4.334;2023-04-06T01:18:55;16.73;;;11.93;;
14474;SDS011;7323;50.848;4.334;2023-04-06T01:21:47;17.03;;;11.83;;
14474;SDS011;7323;50.848;4.334;2023-04-06T01:24:28;17.90;;;12.50;;
14474;SDS011;7323;50.848;4.334;2023-04-06T01:27:08;15.53;;;11.63;;
14474;SDS011;7323;50.848;4.334;2023-04-06T01:29:35;17.43;;;12.20;;
14474;SDS011;7323;50.848;4.334;2023-04-06T01:32:09;19.93;;;11.53;;
14474;SDS011;7323;50.848;4.334;2023-04-06T01:34:58;14.70;;;11.17;;
14474;SDS011;7323;50.848;4.334;2023-04-06T01:37:23;15.53;;;11.17;;
14474;SDS011;7323;50.848;4.334;2023-04-06T01:40:17;16.27;;;11.93;;
14474;SDS011;7323;50.848;4.334;2023-04-06T01:43:06;15.77;;;11.77;;
14474;SDS011;7323;50.848;4.334;2023-04-06T01:48:25;19.00;;;12.37;;
14474;SDS011;7323;50.848;4.334;2023-04-06T01:50:52;17.67;;;12.30;;
14474;SDS011;7323;50.848;4.334;2023-04-06T01:53:24;18.23;;;12.70;;
14474;SDS011;7323;50.848;4.334;2023-04-06T01:55:58;14.97;;;11.80;;
14474;SDS011;7323;50.848;4.334;2023-04-06T01:58:25;17.57;;;12.03;;
14474;SDS011;7323;50.848;4.334;2023-04-06T02:00:54;20.87;;;12.33;;
14474;SDS011;7323;50.848;4.334;2023-04-06T02:03:33;15.10;;;11.73;;
14474;SDS011;7323;50.848;4.334;2023-04-06T02:06:21;16.33;;;11.63;;
14474;SDS011;7323;50.848;4.334;2023-04-06T02:08:47;16.13;;;11.70;;
14474;SDS011;7323;50.848;4.334;2023-04-06T02:11:25;15.97;;;12.30;;
14474;SDS011;7323;50.848;4.334;2023-04-06T02:13:55;17.63;;;12.00;;
14474;SDS011;7323;50.848;4.334;2023-04-06T02:16:55;17.33;;;10.87;;
14474;SDS011;7323;50.848;4.334;2023-04-06T02:19:24;15.13;;;11.57;;
14474;SDS011;7323;50.848;4.334;2023-04-06T02:22:13;17.80;;;12.17;;
14474;SDS011;7323;50.848;4.334;2023-04-06T02:24:59;16.60;;;12.13;;
14474;SDS011;7323;50.848;4.334;2023-04-06T02:27:25;18.47;;;13.17;;
14474;SDS011;7323;50.848;4.334;2023-04-06T02:30:12;16.33;;;11.50;;
14474;SDS011;7323;50.848;4.334;2023-04-06T02:32:38;20.13;;;12.23;;
14474;SDS011;7323;50.848;4.334;2023-04-06T02:35:25;15.70;;;11.60;;
14474;SDS011;7323;50.848;4.334;2023-04-06T02:38:19;15.70;;;11.40;;
14474;SDS011;7323;50.848;4.334;2023-04-06T02:41:03;16.97;;;11.93;;
14474;SDS011;7323;50.848;4.334;2023-04-06T02:43:56;15.50;;;11.80;;
14474;SDS011;7323;50.848;4.334;2023-04-06T02:47:01;17.13;;;11.80;;
14474;SDS011;7323;50.848;4.334;2023-04-06T02:49:29;14.40;;;11.87;;
14474;SDS011;7323;50.848;4.334;2023-04-06T02:52:08;15.30;;;11.33;;
14474;SDS011;7323;50.848;4.334;2023-04-06T02:55:13;14.20;;;11.20;;
14474;SDS011;7323;50.848;4.334;2023-04-06T02:57:47;17.93;;;12.13;;
14474;SDS011;7323;50.848;4.334;2023-04-06T03:00:36;15.27;;;11.70;;
14474;SDS011;7323;50.848;4.334;2023-04-06T03:06:39;17.40;;;12.70;;
14474;SDS011;7323;50.848;4.334;2023-04-06T03:09:07;16.67;;;12.33;;
14474;SDS011;7323;50.848;4.334;2023-04-06T03:11:33;15.50;;;11.87;;
14474;SDS011;7323;50.848;4.334;2023-04-06T03:14:03;16.10;;;12.10;;
14474;SDS011;7323;50.848;4.334;2023-04-06T03:16:49;17.20;;;12.17;;
14474;SDS011;7323;50.848;4.334;2023-04-06T03:19:32;15.10;;;11.70;;
14474;SDS011;7323;50.848;4.334;2023-04-06T03:22:20;15.63;;;11.37;;
14474;SDS011;7323;50.848;4.334;2023-04-06T03:24:46;16.10;;;11.53;;
14474;SDS011;7323;50.848;4.334;2023-04-06T03:27:20;17.43;;;12.07;;
14474;SDS011;7323;50.848;4.334;2023-04-06T03:29:45;16.33;;;11.60;;
14474;SDS011;7323;50.848;4.334;2023-04-06T03:32:14;15.10;;;12.60;;
14474;SDS011;7323;50.848;4.334;2023-04-06T03:37:37;14.37;;;11.43;;
14474;SDS011;7323;50.848;4.334;2023-04-06T03:40:24;16.43;;;12.27;;
14474;SDS011;7323;50.848;4.334;2023-04-06T03:42:50;15.03;;;11.20;;
14474;SDS011;7323;50.848;4.334;2023-04-06T03:45:20;16.77;;;11.97;;
14474;SDS011;7323;50.848;4.334;2023-04-06T03:48:05;15.00;;;11.07;;
14474;SDS011;7323;50.848;4.334;2023-04-06T03:50:32;18.47;;;12.07;;
14474;SDS011;7323;50.848;4.334;2023-04-06T03:53:02;16.37;;;11.87;;
14474;SDS011;7323;50.848;4.334;2023-04-06T03:58:19;16.87;;;11.40;;
14474;SDS011;7323;50.848;4.334;2023-04-06T04:00:45;16.37;;;12.40;;
14474;SDS011;7323;50.848;4.334;2023-04-06T04:03:18;18.53;;;12.47;;
14474;SDS011;7323;50.848;4.334;2023-04-06T04:05:54;17.53;;;11.57;;
14474;SDS011;7323;50.848;4.334;2023-04-06T04:08:31;18.17;;;12.07;;
14474;SDS011;7323;50.848;4.334;2023-04-06T04:11:05;16.90;;;12.10;;
14474;SDS011;7323;50.848;4.334;2023-04-06T04:13:49;15.63;;;11.60;;
14474;SDS011;7323;50.848;4.334;2023-04-06T04:16:17;17.87;;;12.60;;
14474;SDS011;7323;50.848;4.334;2023-04-06T04:18:51;18.03;;;11.17;;
14474;SDS011;7323;50.848;4.334;2023-04-06T04:21:20;18.13;;;12.60;;
14474;SDS011;7323;50.848;4.334;2023-04-06T04:24:11;19.93;;;12.37;;
14474;SDS011;7323;50.848;4.334;2023-04-06T04:26:46;18.67;;;12.43;;
14474;SDS011;7323;50.848;4.334;2023-04-06T04:29:13;16.53;;;11.80;;
14474;SDS011;7323;50.848;4.334;2023-04-06T04:32:02;16.60;;;12.10;;
14474;SDS011;7323;50.848;4.334;2023-04-06T04:34:33;18.93;;;12.03;;
14474;SDS011;7323;50.848;4.334;2023-04-06T04:37:01;18.17;;;11.93;;
14474;SDS011;7323;50.848;4.334;2023-04-06T04:39:26;20.67;;;13.30;;
14474;SDS011;7323;50.848;4.334;2023-04-06T04:41:52;18.70;;;13.30;;
14474;SDS011;7323;50.848;4.334;2023-04-06T04:44:30;17.20;;;12.47;;
14474;SDS011;7323;50.848;4.334;2023-04-06T04:46:57;16.17;;;11.77;;
14474;SDS011;7323;50.848;4.334;2023-04-06T04:49:33;20.53;;;13.00;;
14474;SDS011;7323;50.848;4.334;2023-04-06T04:52:04;22.13;;;12.97;;
14474;SDS011;7323;50.848;4.334;2023-04-06T04:54:50;20.37;;;13.40;;
14474;SDS011;7323;50.848;4.334;2023-04-06T04:57:19;18.97;;;12.33;;
14474;SDS011;7323;50.848;4.334;2023-04-06T05:00:08;18.87;;;12.60;;
14474;SDS011;7323;50.848;4.334;2023-04-06T05:03:08;18.20;;;12.67;;
14474;SDS011;7323;50.848;4.334;2023-04-06T05:12:24;19.90;;;13.53;;
14474;SDS011;7323;50.848;4.334;2023-04-06T05:14:53;21.37;;;13.50;;
14474;SDS011;7323;50.848;4.334;2023-04-06T05:17:47;19.83;;;13.00;;
14474;SDS011;7323;50.848;4.334;2023-04-06T05:20:16;20.17;;;13.60;;
14474;SDS011;7323;50.848;4.334;2023-04-06T05:23:20;18.50;;;14.00;;
14474;SDS011;7323;50.848;4.334;2023-04-06T05:26:07;19.80;;;13.50;;
14474;SDS011;7323;50.848;4.334;2023-04-06T05:28:53;17.70;;;13.80;;
14474;SDS011;7323;50.848;4.334;2023-04-06T05:33:55;19.03;;;13.70;;
14474;SDS011;7323;50.848;4.334;2023-04-06T05:36:27;19.60;;;14.83;;
14474;SDS011;7323;50.848;4.334;2023-04-06T05:39:00;19.53;;;14.27;;
14474;SDS011;7323;50.848;4.334;2023-04-06T05:41:40;19.30;;;14.30;;
14474;SDS011;7323;50.848;4.334;2023-04-06T05:44:40;21.33;;;14.43;;
14474;SDS011;7323;50.848;4.334;2023-04-06T05:47:24;22.93;;;14.90;;
14474;SDS011;7323;50.848;4.334;2023-04-06T05:50:11;17.57;;;14.40;;
14474;SDS011;7323;50.848;4.334;2023-04-06T05:52:37;20.57;;;15.00;;
14474;SDS011;7323;50.848;4.334;2023-04-06T05:55:11;23.83;;;14.13;;
14474;SDS011;7323;50.848;4.334;2023-04-06T05:57:44;22.87;;;14.40;;
14474;SDS011;7323;50.848;4.334;2023-04-06T06:00:38;22.30;;;15.47;;
14474;SDS011;7323;50.848;4.334;2023-04-06T06:03:04;18.63;;;14.07;;
14474;SDS011;7323;50.848;4.334;2023-04-06T06:05:49;21.77;;;15.40;;
14474;SDS011;7323;50.848;4.334;2023-04-06T06:08:44;22.27;;;14.77;;
14474;SDS011;7323;50.848;4.334;2023-04-06T06:11:13;19.97;;;15.30;;
14474;SDS011;7323;50.848;4.334;2023-04-06T06:13:42;20.33;;;15.10;;
14474;SDS011;7323;50.848;4.334;2023-04-06T06:16:11;22.40;;;15.03;;
14474;SDS011;7323;50.848;4.334;2023-04-06T06:18:39;19.33;;;15.33;;
14474;SDS011;7323;50.848;4.334;2023-04-06T06:21:05;20.63;;;15.90;;
14474;SDS011;7323;50.848;4.334;2023-04-06T06:23:33;20.60;;;16.50;;
14474;SDS011;7323;50.848;4.334;2023-04-06T06:29:18;22.87;;;16.77;;
14474;SDS011;7323;50.848;4.334;2023-04-06T06:31:45;26.87;;;16.60;;
14474;SDS011;7323;50.848;4.334;2023-04-06T06:34:24;24.33;;;16.53;;
14474;SDS011;7323;50.848;4.334;2023-04-06T06:36:52;20.53;;;15.40;;
14474;SDS011;7323;50.848;4.334;2023-04-06T06:39:20;22.97;;;16.17;;
14474;SDS011;7323;50.848;4.334;2023-04-06T06:41:58;21.50;;;15.77;;
14474;SDS011;7323;50.848;4.334;2023-04-06T06:44:31;21.47;;;15.23;;
14474;SDS011;7323;50.848;4.334;2023-04-06T06:46:57;23.53;;;16.20;;
14474;SDS011;7323;50.848;4.334;2023-04-06T06:49:29;20.63;;;15.77;;
14474;SDS011;7323;50.848;4.334;2023-04-06T06:51:56;22.93;;;15.13;;
14474;SDS011;7323;50.848;4.334;2023-04-06T06:54:59;25.47;;;17.30;;
14474;SDS011;7323;50.848;4.334;2023-04-06T07:00:36;19.30;;;15.53;;
14474;SDS011;7323;50.848;4.334;2023-04-06T07:03:45;23.30;;;16.13;;
14474;SDS011;7323;50.848;4.334;2023-04-06T07:06:52;26.30;;;16.80;;
14474;SDS011;7323;50.848;4.334;2023-04-06T07:09:23;21.70;;;16.57;;
14474;SDS011;7323;50.848;4.334;2023-04-06T07:11:50;26.20;;;17.20;;
14474;SDS011;7323;50.848;4.334;2023-04-06T07:14:19;24.77;;;15.90;;
14474;SDS011;7323;50.848;4.334;2023-04-06T07:17:00;19.63;;;15.20;;
14474;SDS011;7323;50.848;4.334;2023-04-06T07:19:32;22.83;;;15.63;;
14474;SDS011;7323;50.848;4.334;2023-04-06T07:21:58;22.73;;;15.50;;
14474;SDS011;7323;50.848;4.334;2023-04-06T07:24:46;22.07;;;15.20;;
14474;SDS011;7323;50.848;4.334;2023-04-06T07:27:18;21.17;;;14.70;;
14474;SDS011;7323;50.848;4.334;2023-04-06T07:29:47;20.67;;;14.03;;
14474;SDS011;7323;50.848;4.334;2023-04-06T07:35:16;19.13;;;13.10;;
14474;SDS011;7323;50.848;4.334;2023-04-06T07:37:54;19.17;;;13.30;;
14474;SDS011;7323;50.848;4.334;2023-04-06T07:40:27;18.30;;;13.33;;
14474;SDS011;7323;50.848;4.334;2023-04-06T07:43:10;16.67;;;12.67;;
14474;SDS011;7323;50.848;4.334;2023-04-06T07:49:47;15.23;;;11.93;;
14474;SDS011;7323;50.848;4.334;2023-04-06T07:53:08;15.27;;;10.70;;
14474;SDS011;7323;50.848;4.334;2023-04-06T07:56:16;16.40;;;11.17;;
14474;SDS011;7323;50.848;4.334;2023-04-06T07:58:52;13.63;;;10.67;;
14474;SDS011;7323;50.848;4.334;2023-04-06T08:01:43;13.80;;;9.77;;
14474;SDS011;7323;50.848;4.334;2023-04-06T08:04:13;13.67;;;10.07;;
14474;SDS011;7323;50.848;4.334;2023-04-06T08:06:44;14.33;;;10.23;;
14474;SDS011;7323;50.848;4.334;2023-04-06T08:09:10;14.37;;;10.63;;
14474;SDS011;7323;50.848;4.334;2023-04-06T08:12:01;14.73;;;10.53;;
14474;SDS011;7323;50.848;4.334;2023-04-06T08:14:36;14.50;;;11.03;;
14474;SDS011;7323;50.848;4.334;2023-04-06T08:17:02;16.00;;;10.30;;
14474;SDS011;7323;50.848;4.334;2023-04-06T08:22:27;12.77;;;8.77;;
14474;SDS011;7323;50.848;4.334;2023-04-06T08:28:47;15.77;;;9.40;;
14474;SDS011;7323;50.848;4.334;2023-04-06T08:31:21;13.03;;;9.00;;
14474;SDS011;7323;50.848;4.334;2023-04-06T08:33:46;12.33;;;9.23;;
14474;SDS011;7323;50.848;4.334;2023-04-06T08:36:13;13.13;;;8.60;;
14474;SDS011;7323;50.848;4.334;2023-04-06T08:39:30;13.77;;;8.43;;
14474;SDS011;7323;50.848;4.334;2023-04-06T08:42:38;13.20;;;8.53;;
14474;SDS011;7323;50.848;4.334;2023-04-06T08:45:34;11.07;;;8.10;;
14474;SDS011;7323;50.848;4.334;2023-04-06T08:48:04;12.87;;;8.97;;
14474;SDS011;7323;50.848;4.334;2023-04-06T08:51:00;11.87;;;9.20;;
14474;SDS011;7323;50.848;4.334;2023-04-06T08:53:45;12.07;;;8.67;;
14474;SDS011;7323;50.848;4.334;2023-04-06T08:56:11;13.17;;;8.47;;
14474;SDS011;7323;50.848;4.334;2023-04-06T08:58:43;10.77;;;8.80;;
14474;SDS011;7323;50.848;4.334;2023-04-06T09:01:11;15.23;;;9.63;;
14474;SDS011;7323;50.848;4.334;2023-04-06T09:04:09;12.00;;;9.27;;
14474;SDS011;7323;50.848;4.334;2023-04-06T09:06:41;14.77;;;8.93;;
14474;SDS011;7323;50.848;4.334;2023-04-06T09:09:26;14.47;;;9.53;;
14474;SDS011;7323;50.848;4.334;2023-04-06T09:11:53;12.90;;;9.90;;
14474;SDS011;7323;50.848;4.334;2023-04-06T09:14:40;15.10;;;9.70;;
14474;SDS011;7323;50.848;4.334;2023-04-06T09:17:33;13.03;;;10.13;;
14474;SDS011;7323;50.848;4.334;2023-04-06T09:20:14;14.70;;;10.00;;
14474;SDS011;7323;50.848;4.334;2023-04-06T09:23:17;14.57;;;10.13;;
14474;SDS011;7323;50.848;4.334;2023-04-06T09:25:51;12.63;;;10.10;;
14474;SDS011;7323;50.848;4.334;2023-04-06T09:28:28;12.90;;;9.57;;
14474;SDS011;7323;50.848;4.334;2023-04-06T09:31:04;14.40;;;10.10;;
14474;SDS011;7323;50.848;4.334;2023-04-06T09:33:59;18.27;;;9.37;;
14474;SDS011;7323;50.848;4.334;2023-04-06T09:37:16;14.17;;;9.07;;
14474;SDS011;7323;50.848;4.334;2023-04-06T09:39:43;12.07;;;9.10;;
14474;SDS011;7323;50.848;4.334;2023-04-06T09:47:39;10.57;;;7.73;;
14474;SDS011;7323;50.848;4.334;2023-04-06T09:50:10;12.47;;;8.50;;
14474;SDS011;7323;50.848;4.334;2023-04-06T09:55:37;10.70;;;8.10;;
14474;SDS011;7323;50.848;4.334;2023-04-06T09:58:42;11.27;;;7.97;;
14474;SDS011;7323;50.848;4.334;2023-04-06T10:01:58;11.10;;;8.47;;
14474;SDS011;7323;50.848;4.334;2023-04-06T10:05:14;12.30;;;8.93;;
14474;SDS011;7323;50.848;4.334;2023-04-06T10:07:46;11.20;;;7.90;;
14474;SDS011;7323;50.848;4.334;2023-04-06T10:10:39;11.10;;;8.43;;
14474;SDS011;7323;50.848;4.334;2023-04-06T10:16:49;11.57;;;7.93;;
14474;SDS011;7323;50.848;4.334;2023-04-06T10:19:47;13.60;;;8.60;;
14474;SDS011;7323;50.848;4.334;2023-04-06T10:26:12;10.47;;;8.17;;
14474;SDS011;7323;50.848;4.334;2023-04-06T10:29:01;14.23;;;8.63;;
14474;SDS011;7323;50.848;4.334;2023-04-06T10:31:41;10.50;;;8.53;;
14474;SDS011;7323;50.848;4.334;2023-04-06T10:34:35;11.07;;;8.37;;
14474;SDS011;7323;50.848;4.334;2023-04-06T10:37:15;12.77;;;8.73;;
14474;SDS011;7323;50.848;4.334;2023-04-06T10:40:28;11.83;;;9.50;;
14474;SDS011;7323;50.848;4.334;2023-04-06T10:43:32;14.37;;;9.40;;
14474;SDS011;7323;50.848;4.334;2023-04-06T10:46:01;14.07;;;10.20;;
14474;SDS011;7323;50.848;4.334;2023-04-06T10:48:53;11.97;;;9.00;;
14474;SDS011;7323;50.848;4.334;2023-04-06T10:52:05;12.57;;;9.13;;
14474;SDS011;7323;50.848;4.334;2023-04-06T10:54:39;11.20;;;9.23;;
14474;SDS011;7323;50.848;4.334;2023-04-06T10:57:28;11.83;;;9.73;;
14474;SDS011;7323;50.848;4.334;2023-04-06T10:59:58;10.90;;;9.17;;
14474;SDS011;7323;50.848;4.334;2023-04-06T11:02:24;10.87;;;9.03;;
14474;SDS011;7323;50.848;4.334;2023-04-06T11:04:58;11.67;;;9.83;;
14474;SDS011;7323;50.848;4.334;2023-04-06T11:07:48;10.97;;;9.03;;
14474;SDS011;7323;50.848;4.334;2023-04-06T11:10:22;10.97;;;9.37;;
14474;SDS011;7323;50.848;4.334;2023-04-06T11:12:57;12.87;;;9.87;;
14474;SDS011;7323;50.848;4.334;2023-04-06T11:15:48;14.20;;;10.07;;
14474;SDS011;7323;50.848;4.334;2023-04-06T11:19:03;12.93;;;9.33;;
14474;SDS011;7323;50.848;4.334;2023-04-06T11:21:41;12.10;;;9.60;;
14474;SDS011;7323;50.848;4.334;2023-04-06T11:24:36;15.27;;;9.93;;
14474;SDS011;7323;50.848;4.334;2023-04-06T11:27:09;14.37;;;9.97;;
14474;SDS011;7323;50.848;4.334;2023-04-06T11:29:52;12.40;;;10.20;;
14474;SDS011;7323;50.848;4.334;2023-04-06T11:35:22;10.67;;;8.80;;
14474;SDS011;7323;50.848;4.334;2023-04-06T11:38:24;12.20;;;9.60;;
14474;SDS011;7323;50.848;4.334;2023-04-06T11:40:55;12.23;;;9.20;;
14474;SDS011;7323;50.848;4.334;2023-04-06T11:44:03;14.43;;;10.63;;
14474;SDS011;7323;50.848;4.334;2023-04-06T11:47:03;13.70;;;10.37;;
14474;SDS011;7323;50.848;4.334;2023-04-06T11:49:49;14.73;;;10.43;;
14474;SDS011;7323;50.848;4.334;2023-04-06T11:52:24;12.77;;;10.67;;
14474;SDS011;7323;50.848;4.334;2023-04-06T11:55:18;15.80;;;10.63;;
14474;SDS011;7323;50.848;4.334;2023-04-06T11:58:12;14.20;;;10.00;;
14474;SDS011;7323;50.848;4.334;2023-04-06T12:01:02;14.10;;;10.80;;
14474;SDS011;7323;50.848;4.334;2023-04-06T12:03:29;12.27;;;9.90;;
14474;SDS011;7323;50.848;4.334;2023-04-06T12:06:04;14.57;;;11.20;;
14474;SDS011;7323;50.848;4.334;2023-04-06T12:08:46;14.93;;;10.87;;
14474;SDS011;7323;50.848;4.334;2023-04-06T12:11:25;16.43;;;11.03;;
14474;SDS011;7323;50.848;4.334;2023-04-06T12:14:04;15.10;;;10.60;;
14474;SDS011;7323;50.848;4.334;2023-04-06T12:16:34;13.87;;;10.53;;
14474;SDS011;7323;50.848;4.334;2023-04-06T12:19:21;13.77;;;10.83;;
14474;SDS011;7323;50.848;4.334;2023-04-06T12:21:55;15.20;;;11.47;;
14474;SDS011;7323;50.848;4.334;2023-04-06T12:24:34;12.80;;;10.60;;
14474;SDS011;7323;50.848;4.334;2023-04-06T12:27:10;14.93;;;10.50;;
14474;SDS011;7323;50.848;4.334;2023-04-06T12:29:54;12.77;;;10.10;;
14474;SDS011;7323;50.848;4.334;2023-04-06T12:32:24;12.40;;;10.37;;
14474;SDS011;7323;50.848;4.334;2023-04-06T12:34:54;12.63;;;10.50;;
14474;SDS011;7323;50.848;4.334;2023-04-06T12:37:36;12.30;;;10.63;;
14474;SDS011;7323;50.848;4.334;2023-04-06T12:43:21;12.80;;;10.83;;
14474;SDS011;7323;50.848;4.334;2023-04-06T12:45:55;14.23;;;11.30;;
14474;SDS011;7323;50.848;4.334;2023-04-06T12:48:45;13.77;;;10.47;;
14474;SDS011;7323;50.848;4.334;2023-04-06T12:59:49;14.00;;;11.30;;
14474;SDS011;7323;50.848;4.334;2023-04-06T13:02:18;13.70;;;10.83;;
14474;SDS011;7323;50.848;4.334;2023-04-06T13:05:12;14.13;;;11.27;;
14474;SDS011;7323;50.848;4.334;2023-04-06T13:08:08;15.27;;;11.87;;
14474;SDS011;7323;50.848;4.334;2023-04-06T13:11:04;11.30;;;10.13;;
14474;SDS011;7323;50.848;4.334;2023-04-06T13:13:53;13.47;;;12.03;;
14474;SDS011;7323;50.848;4.334;2023-04-06T13:16:38;14.03;;;11.93;;
14474;SDS011;7323;50.848;4.334;2023-04-06T13:19:10;15.07;;;11.70;;
14474;SDS011;7323;50.848;4.334;2023-04-06T13:21:42;15.67;;;11.90;;
14474;SDS011;7323;50.848;4.334;2023-04-06T13:24:09;14.67;;;11.37;;
14474;SDS011;7323;50.848;4.334;2023-04-06T13:26:38;14.90;;;11.77;;
14474;SDS011;7323;50.848;4.334;2023-04-06T13:29:28;12.83;;;11.47;;
14474;SDS011;7323;50.848;4.334;2023-04-06T13:32:32;14.60;;;11.90;;
14474;SDS011;7323;50.848;4.334;2023-04-06T13:35:49;13.93;;;11.47;;
14474;SDS011;7323;50.848;4.334;2023-04-06T13:38:58;15.47;;;12.00;;
14474;SDS011;7323;50.848;4.334;2023-04-06T13:41:52;14.10;;;11.53;;
14474;SDS011;7323;50.848;4.334;2023-04-06T13:45:06;14.80;;;11.63;;
14474;SDS011;7323;50.848;4.334;2023-04-06T13:47:52;16.07;;;11.20;;
14474;SDS011;7323;50.848;4.334;2023-04-06T13:50:28;15.63;;;12.87;;
14474;SDS011;7323;50.848;4.334;2023-04-06T13:52:59;14.10;;;12.20;;
14474;SDS011;7323;50.848;4.334;2023-04-06T13:56:23;14.93;;;12.23;;
14474;SDS011;7323;50.848;4.334;2023-04-06T13:58:55;14.27;;;11.37;;
14474;SDS011;7323;50.848;4.334;2023-04-06T14:01:43;15.77;;;12.47;;
14474;SDS011;7323;50.848;4.334;2023-04-06T14:04:30;16.17;;;11.93;;
14474;SDS011;7323;50.848;4.334;2023-04-06T14:06:57;14.40;;;12.90;;
14474;SDS011;7323;50.848;4.334;2023-04-06T14:10:01;17.93;;;13.33;;
14474;SDS011;7323;50.848;4.334;2023-04-06T14:13:06;16.10;;;12.80;;
14474;SDS011;7323;50.848;4.334;2023-04-06T14:15:58;16.50;;;12.60;;
14474;SDS011;7323;50.848;4.334;2023-04-06T14:18:29;17.17;;;13.63;;
14474;SDS011;7323;50.848;4.334;2023-04-06T14:24:02;18.27;;;13.03;;
14474;SDS011;7323;50.848;4.334;2023-04-06T14:26:48;18.20;;;15.00;;
14474;SDS011;7323;50.848;4.334;2023-04-06T14:29:36;19.17;;;15.07;;
14474;SDS011;7323;50.848;4.334;2023-04-06T14:32:27;19.07;;;13.93;;
14474;SDS011;7323;50.848;4.334;2023-04-06T14:34:53;17.57;;;14.90;;
14474;SDS011;7323;50.848;4.334;2023-04-06T14:37:32;15.87;;;14.23;;
14474;SDS011;7323;50.848;4.334;2023-04-06T14:42:45;16.30;;;14.20;;
14474;SDS011;7323;50.848;4.334;2023-04-06T14:45:13;17.37;;;14.03;;
14474;SDS011;7323;50.848;4.334;2023-04-06T14:48:02;17.63;;;14.60;;
14474;SDS011;7323;50.848;4.334;2023-04-06T14:51:05;20.57;;;13.60;;
14474;SDS011;7323;50.848;4.334;2023-04-06T14:54:02;17.70;;;14.20;;
14474;SDS011;7323;50.848;4.334;2023-04-06T14:56:36;17.97;;;14.60;;
14474;SDS011;7323;50.848;4.334;2023-04-06T14:59:18;16.27;;;14.57;;
14474;SDS011;7323;50.848;4.334;2023-04-06T15:02:11;20.10;;;15.00;;
14474;SDS011;7323;50.848;4.334;2023-04-06T15:04:48;19.67;;;15.90;;
14474;SDS011;7323;50.848;4.334;2023-04-06T15:09:52;19.83;;;16.73;;
14474;SDS011;7323;50.848;4.334;2023-04-06T15:20:36;19.93;;;15.10;;
14474;SDS011;7323;50.848;4.334;2023-04-06T15:23:03;17.40;;;14.70;;
14474;SDS011;7323;50.848;4.334;2023-04-06T15:28:55;19.10;;;15.30;;
14474;SDS011;7323;50.848;4.334;2023-04-06T15:31:22;17.57;;;14.43;;
14474;SDS011;7323;50.848;4.334;2023-04-06T15:33:57;18.17;;;14.20;;
14474;SDS011;7323;50.848;4.334;2023-04-06T15:36:24;17.20;;;14.33;;
14474;SDS011;7323;50.848;4.334;2023-04-06T15:38:57;18.87;;;14.13;;
14474;SDS011;7323;50.848;4.334;2023-04-06T15:41:36;20.13;;;14.87;;
14474;SDS011;7323;50.848;4.334;2023-04-06T15:44:02;17.77;;;14.03;;
14474;SDS011;7323;50.848;4.334;2023-04-06T15:46:55;16.93;;;13.60;;
14474;SDS011;7323;50.848;4.334;2023-04-06T15:49:27;19.67;;;14.87;;
14474;SDS011;7323;50.848;4.334;2023-04-06T15:52:08;19.77;;;14.83;;
14474;SDS011;7323;50.848;4.334;2023-04-06T15:57:50;18.40;;;14.67;;
14474;SDS011;7323;50.848;4.334;2023-04-06T16:00:16;18.97;;;14.37;;
14474;SDS011;7323;50.848;4.334;2023-04-06T16:02:58;17.97;;;14.57;;
14474;SDS011;7323;50.848;4.334;2023-04-06T16:09:44;16.57;;;14.23;;
14474;SDS011;7323;50.848;4.334;2023-04-06T16:12:19;18.77;;;14.57;;
14474;SDS011;7323;50.848;4.334;2023-04-06T16:14:59;18.73;;;14.70;;
14474;SDS011;7323;50.848;4.334;2023-04-06T16:17:51;16.90;;;13.70;;
14474;SDS011;7323;50.848;4.334;2023-04-06T16:20:17;17.93;;;14.73;;
14474;SDS011;7323;50.848;4.334;2023-04-06T16:23:00;17.27;;;14.70;;
14474;SDS011;7323;50.848;4.334;2023-04-06T16:28:01;18.93;;;14.97;;
14474;SDS011;7323;50.848;4.334;2023-04-06T16:30:35;20.67;;;16.20;;
14474;SDS011;7323;50.848;4.334;2023-04-06T16:33:07;19.47;;;17.33;;
14474;SDS011;7323;50.848;4.334;2023-04-06T16:35:59;21.13;;;16.20;;
14474;SDS011;7323;50.848;4.334;2023-04-06T16:38:35;22.20;;;17.73;;
14474;SDS011;7323;50.848;4.334;2023-04-06T16:41:29;18.93;;;16.13;;
14474;SDS011;7323;50.848;4.334;2023-04-06T16:44:00;20.60;;;16.37;;
14474;SDS011;7323;50.848;4.334;2023-04-06T16:46:30;21.17;;;16.10;;
14474;SDS011;7323;50.848;4.334;2023-04-06T16:49:05;20.27;;;14.37;;
14474;SDS011;7323;50.848;4.334;2023-04-06T16:54:19;17.27;;;12.30;;
14474;SDS011;7323;50.848;4.334;2023-04-06T16:56:54;22.23;;;11.87;;
14474;SDS011;7323;50.848;4.334;2023-04-06T16:59:23;17.60;;;11.37;;
14474;SDS011;7323;50.848;4.334;2023-04-06T17:02:05;15.00;;;8.77;;
14474;SDS011;7323;50.848;4.334;2023-04-06T17:07:56;12.20;;;7.20;;
14474;SDS011;7323;50.848;4.334;2023-04-06T17:10:32;19.80;;;7.13;;
14474;SDS011;7323;50.848;4.334;2023-04-06T17:16:26;10.03;;;5.37;;
14474;SDS011;7323;50.848;4.334;2023-04-06T17:19:35;12.87;;;4.80;;
14474;SDS011;7323;50.848;4.334;2023-04-06T17:22:33;14.37;;;5.30;;
14474;SDS011;7323;50.848;4.334;2023-04-06T17:25:50;17.40;;;5.57;;
14474;SDS011;7323;50.848;4.334;2023-04-06T17:28:54;14.17;;;5.37;;
14474;SDS011;7323;50.848;4.334;2023-04-06T17:32:26;13.67;;;5.43;;
14474;SDS011;7323;50.848;4.334;2023-04-06T17:37:27;11.77;;;5.50;;
14474;SDS011;7323;50.848;4.334;2023-04-06T17:40:24;14.53;;;5.27;;
14474;SDS011;7323;50.848;4.334;2023-04-06T17:43:22;16.57;;;5.60;;
14474;SDS011;7323;50.848;4.334;2023-04-06T17:46:13;17.53;;;5.87;;
14474;SDS011;7323;50.848;4.334;2023-04-06T17:49:43;15.50;;;5.33;;
14474;SDS011;7323;50.848;4.334;2023-04-06T17:52:11;17.33;;;6.23;;
14474;SDS011;7323;50.848;4.334;2023-04-06T17:55:34;15.37;;;5.93;;
14474;SDS011;7323;50.848;4.334;2023-04-06T17:58:41;14.30;;;5.63;;